Hillje, Texas
Current Conditions -  °F | °C
As of 6:15 AM on Friday 19 Dec 2014 (Local Time) from KARM Reporting Station
Drizzle Drizzle  
Wind Chill: 59°   Ceiling: 1800
Heat Index: 59°   Visibility: 7mi
Dew Point: 58°   Wind: 10mph
Humidity: 97%   Direction: 70°ENE
Pressure: 30"   Gusts: NA
Location:  29.1916°N, 96.2212°W
Report Text: KARM 191215Z AUTO 07009KT 7SM -DZ SCT006 BKN018 OVC043 15/14 A3000 RMK AO2 LTG DSNT N AND SE P0001 T01480143
Loading
Personal Weather Stations






























Interactive Weather Map New forecast layout! Learn more

10-Day Weather Forecast

Advertisements
Track Severe Weather on mobile